Stavanger Breeze — LAOQ7 — position and weather

sailwx.info

Track history (hours):
 
Tides and Currents Weather Stations Pressure Air Temp Water Temp Dewpoint Dewpoint Depression Visibility Wind Speed Wind Dir Waves Ship Positions

Stavanger Breeze

Last reported at 2017-Dec-09 09:15 UTC. Time now 2017-Dec-11 11:29 UTC.
Position N 27°39' W 096°38'.

Length 182 m; draft 11.5 m.

Type: Tanker. MMSI: 257772000.

Date/timePositionNaut miles runAvg speedWind from/ knotsBaromVisibWave heightAir tempDewpointWater temp
2017-Dec-09 09:15N 27°39' W 096°38'313.0
2017-Dec-09 09:00N 27°41' W 096°42'713.0
2017-Dec-09 08:30N 27°43' W 096°48'612.4
2017-Dec-09 08:00N 27°47' W 096°54'5 9.8
2017-Dec-09 07:29N 27°49' W 096°59'4 7.5
2017-Dec-09 06:59N 27°50' W 097°03'4 8.2
2017-Dec-09 06:30N 27°50' W 097°08'4 8.4
2017-Dec-09 06:00N 27°49' W 097°12'5 8.8
2017-Dec-09 05:29N 27°49' W 097°17'5 8.7
2017-Dec-09 04:54N 27°49' W 097°23'3 3.9
2017-Dec-09 04:05N 27°49' W 097°27'0 4.7
2017-Dec-09 04:00N 27°49' W 097°27'2 3.1
2017-Dec-09 03:29N 27°49' W 097°29'9 0.2
2017-Dec-07 01:56N 27°49' W 097°19'510.7
2017-Dec-07 01:29N 27°49' W 097°13'511.0
2017-Dec-07 01:00N 27°50' W 097°08'510.6
2017-Dec-07 00:29N 27°50' W 097°02'5 9.0
2017-Dec-06 23:59N 27°48' W 096°57'2 4.2
2017-Dec-06 23:29N 27°47' W 096°54'0 0.1
2017-Dec-06 22:59N 27°47' W 096°54'0 0.3
2017-Dec-06 22:29N 27°47' W 096°54'4 7.6
2017-Dec-06 22:00N 27°45' W 096°51'612.2
2017-Dec-06 21:30N 27°42' W 096°45'712.7
2017-Dec-06 20:59N 27°39' W 096°39'  
Track history (hours):
 
Tides and Currents Weather Stations Pressure Air Temp Water Temp Dewpoint Dewpoint Depression Visibility Wind Speed Wind Dir Waves Ship Positions

Stavanger Breeze

Last reported at 2017-Dec-09 09:15 UTC. Time now 2017-Dec-11 11:29 UTC.
Position N 27°39' W 096°38'.

Length 182 m; draft 11.5 m.

Type: Tanker. MMSI: 257772000.

Date/timePositionNaut miles runAvg speedWind from/ knotsBaromVisibWave heightAir tempDewpointWater temp
2017-Dec-09 09:15N 27°39' W 096°38'313.0
2017-Dec-09 09:00N 27°41' W 096°42'713.0
2017-Dec-09 08:30N 27°43' W 096°48'612.4
2017-Dec-09 08:00N 27°47' W 096°54'5 9.8
2017-Dec-09 07:29N 27°49' W 096°59'4 7.5
2017-Dec-09 06:59N 27°50' W 097°03'4 8.2
2017-Dec-09 06:30N 27°50' W 097°08'4 8.4
2017-Dec-09 06:00N 27°49' W 097°12'5 8.8
2017-Dec-09 05:29N 27°49' W 097°17'5 8.7
2017-Dec-09 04:54N 27°49' W 097°23'3 3.9
2017-Dec-09 04:05N 27°49' W 097°27'0 4.7
2017-Dec-09 04:00N 27°49' W 097°27'2 3.1
2017-Dec-09 03:29N 27°49' W 097°29'9 0.2
2017-Dec-07 01:56N 27°49' W 097°19'510.7
2017-Dec-07 01:29N 27°49' W 097°13'511.0
2017-Dec-07 01:00N 27°50' W 097°08'510.6
2017-Dec-07 00:29N 27°50' W 097°02'5 9.0
2017-Dec-06 23:59N 27°48' W 096°57'2 4.2
2017-Dec-06 23:29N 27°47' W 096°54'0 0.1
2017-Dec-06 22:59N 27°47' W 096°54'0 0.3
2017-Dec-06 22:29N 27°47' W 096°54'4 7.6
2017-Dec-06 22:00N 27°45' W 096°51'612.2
2017-Dec-06 21:30N 27°42' W 096°45'712.7
2017-Dec-06 20:59N 27°39' W 096°39'  

Dump ship's entire track history